Belvidere, New Jersey
Current Conditions -  °F | °C
As of 1:51 PM on Sunday 23 Nov 2014 (Local Time) from KABE Reporting Station
Clear Clear  
Wind Chill: 57°   Ceiling: Unl
Heat Index: 57°   Visibility: 10mi
Dew Point: 22°   Wind: 0mph
Humidity: 26%   Direction: NA
Pressure: 30.12"   Gusts: NA
Location:  40.83°N, 75.08°W
Report Text: KABE 231851Z 00000KT 10SM CLR 14/M06 A3012 RMK AO2 SLP199 T01391056
Loading
Personal Weather Stations






























Interactive Weather Map New forecast layout! Learn more

10-Day Weather Forecast

Advertisements
Track Severe Weather on mobile